Time;durP1;ratioP1;P1;durP2;ratioP2;P2;SDS_P1;SDS_P2;PMS_P1;PMS_P2;Temp;Humidity;BMP_temperature;BMP_pressure;BME280_temperature;BME280_humidity;BME280_pressure;Samples;Min_cycle;Max_cycle;Signal;HPM_P1;HPM_P2
2022/09/14 00:01:11;;;;;;;1.10;1.00;;;;;;;23.13;33.58;99165.94;5030922;28;20470;-90
2022/09/14 00:03:39;;;;;;;1.17;0.98;;;;;;;23.11;33.71;99166.25;5012182;28;20037;-90
2022/09/14 00:06:12;;;;;;;1.15;1.00;;;;;;;23.04;34.03;99169.34;5031732;28;20030;-89
2022/09/14 00:08:38;;;;;;;0.83;0.80;;;;;;;23.07;33.65;99154.31;5030230;28;20380;-89
2022/09/14 00:11:13;;;;;;;1.52;1.20;;;;;;;23.34;33.31;99155.47;5031391;28;20025;-89
2022/09/14 00:13:43;;;;;;;1.05;0.90;;;;;;;23.49;32.96;99151.63;5026269;28;20028;-90
2022/09/14 00:16:14;;;;;;;1.38;1.10;;;;;;;23.18;33.74;99152.22;5028050;28;20018;-90
2022/09/14 00:18:39;;;;;;;1.48;1.00;;;;;;;23.07;33.91;99143.44;5030449;28;20029;-89
2022/09/14 00:21:06;;;;;;;1.42;1.00;;;;;;;22.98;34.03;99146.00;5028522;28;20179;-89
2022/09/14 00:23:34;;;;;;;0.98;0.90;;;;;;;23.04;34.02;99142.09;5029658;28;20057;-90
2022/09/14 00:26:08;;;;;;;1.23;0.98;;;;;;;23.25;33.28;99134.38;5030538;28;20104;-90
2022/09/14 00:28:41;;;;;;;1.60;1.00;;;;;;;23.38;33.21;99140.13;5029791;28;20505;-90
2022/09/14 00:31:07;;;;;;;1.95;0.95;;;;;;;23.16;33.77;99129.91;5030294;28;20029;-90
2022/09/14 00:33:33;;;;;;;1.00;0.90;;;;;;;22.99;33.85;99130.47;5023756;28;20072;-89
2022/09/14 00:36:19;;;;;;;1.20;1.08;;;;;;;22.95;34.18;99124.00;5029919;28;20021;-89
2022/09/14 00:38:46;;;;;;;1.17;1.08;;;;;;;23.00;34.05;99122.00;5031287;28;20017;-89
2022/09/14 00:41:16;;;;;;;1.48;1.00;;;;;;;23.10;33.64;99117.50;5030077;28;20025;-90
2022/09/14 00:44:03;;;;;;;1.60;1.10;;;;;;;23.39;33.12;99114.47;5031176;28;20044;-90
2022/09/14 00:46:35;;;;;;;1.10;0.90;;;;;;;23.27;33.29;99115.00;5025462;28;20482;-90
2022/09/14 00:49:01;;;;;;;1.00;0.90;;;;;;;23.10;33.70;99106.63;5030019;28;20474;-90
2022/09/14 00:51:28;;;;;;;0.80;0.80;;;;;;;22.99;34.07;99104.06;5027422;28;20021;-90
2022/09/14 00:53:54;;;;;;;1.00;0.90;;;;;;;23.00;34.14;99107.56;5013233;28;20545;-90
2022/09/14 00:56:20;;;;;;;2.55;0.93;;;;;;;23.03;33.73;99101.53;5030566;28;20072;-90
2022/09/14 00:58:48;;;;;;;1.90;1.13;;;;;;;23.21;33.38;99095.19;5022555;28;20025;-89
2022/09/14 01:01:13;;;;;;;1.15;0.95;;;;;;;23.43;33.06;99089.03;5031231;28;20521;-90
2022/09/14 01:03:39;;;;;;;1.45;1.05;;;;;;;23.16;33.67;99089.88;5028499;28;20022;-90
2022/09/14 01:06:07;;;;;;;2.33;1.17;;;;;;;22.95;34.06;99092.13;5029755;28;20135;-91
2022/09/14 01:08:39;;;;;;;0.80;0.80;;;;;;;23.01;34.15;99088.19;5028144;28;20025;-91
2022/09/14 01:11:29;;;;;;;2.60;1.23;;;;;;;22.93;34.20;99090.81;5026398;28;20036;-90
2022/09/14 01:14:14;;;;;;;1.23;1.08;;;;;;;23.08;33.99;99078.84;5029515;28;20037;-89
2022/09/14 01:17:03;;;;;;;0.80;0.80;;;;;;;23.30;33.60;99078.97;5013606;28;20025;-90
2022/09/14 01:19:45;;;;;;;1.00;0.90;;;;;;;23.39;33.05;99077.13;5030763;28;20038;-90
2022/09/14 01:22:18;;;;;;;0.80;0.80;;;;;;;23.42;32.94;99081.97;5022359;28;20037;-90
2022/09/14 01:25:29;;;;;;;0.80;0.80;;;;;;;23.13;33.78;99078.72;5029702;28;20418;-90
2022/09/14 01:27:55;;;;;;;0.80;0.80;;;;;;;23.08;33.72;99066.03;5024478;28;20049;-90
2022/09/14 01:30:21;;;;;;;1.00;0.90;;;;;;;23.04;33.82;99065.81;5027471;28;20030;-89
2022/09/14 01:32:54;;;;;;;1.10;1.00;;;;;;;23.09;33.83;99064.13;5010448;28;20029;-90
2022/09/14 01:35:32;;;;;;;1.05;0.93;;;;;;;23.21;33.39;99065.19;5028061;28;20022;-89
2022/09/14 01:38:06;;;;;;;1.15;0.90;;;;;;;23.18;33.69;99057.66;5029049;28;20033;-89
2022/09/14 01:40:39;;;;;;;1.52;0.98;;;;;;;23.03;34.01;99064.19;5021672;28;20079;-90
2022/09/14 01:43:19;;;;;;;1.15;0.90;;;;;;;22.96;34.06;99057.53;5027772;28;20033;-89
2022/09/14 01:45:52;;;;;;;1.10;0.85;;;;;;;22.93;33.94;99056.22;5012088;28;20459;-89
2022/09/14 01:48:21;;;;;;;1.17;0.90;;;;;;;23.15;33.62;99054.75;5028047;28;20036;-89
2022/09/14 01:50:51;;;;;;;1.00;0.75;;;;;;;23.20;33.27;99051.91;5010553;28;20033;-89
2022/09/14 01:53:21;;;;;;;1.13;0.80;;;;;;;23.38;33.16;99053.69;5024361;28;20075;-89
2022/09/14 01:55:53;;;;;;;1.60;0.80;;;;;;;23.18;33.52;99049.47;5012720;28;20388;-88
2022/09/14 01:58:35;;;;;;;1.10;0.73;;;;;;;22.99;33.88;99044.13;5026274;28;20033;-89
2022/09/14 02:01:02;;;;;;;1.00;0.90;;;;;;;22.95;34.06;99053.97;5028706;28;20476;-89
2022/09/14 02:03:37;;;;;;;0.75;0.73;;;;;;;22.98;34.13;99045.22;5026449;28;20033;-88
2022/09/14 02:06:11;;;;;;;1.10;0.93;;;;;;;23.08;33.83;99043.41;5011859;28;20029;-89
2022/09/14 02:08:37;;;;;;;0.95;0.85;;;;;;;23.20;33.51;99041.00;5025696;28;20034;-89
2022/09/14 02:11:02;;;;;;;1.80;0.80;;;;;;;23.39;33.19;99038.94;5028349;28;20504;-89
2022/09/14 02:13:30;;;;;;;0.80;0.80;;;;;;;23.11;33.57;99038.19;5028238;28;20045;-89
2022/09/14 02:15:55;;;;;;;0.98;0.90;;;;;;;23.02;33.95;99029.84;5020725;28;20021;-90
2022/09/14 02:18:21;;;;;;;1.60;0.80;;;;;;;22.92;33.99;99027.38;5029490;28;20033;-90
2022/09/14 02:21:08;;;;;;;1.75;0.90;;;;;;;22.98;34.12;99025.34;5024666;28;20496;-90
2022/09/14 02:23:39;;;;;;;1.08;0.75;;;;;;;23.02;33.97;99029.84;5013149;28;20030;-89
2022/09/14 02:26:05;;;;;;;2.05;0.80;;;;;;;23.25;33.32;99019.09;5012357;28;20029;-89
2022/09/14 02:28:31;;;;;;;2.38;1.00;;;;;;;23.17;33.45;99011.63;5020926;28;20067;-89
2022/09/14 02:31:06;;;;;;;0.68;0.68;;;;;;;22.99;33.95;99008.69;5028339;28;20466;-90
2022/09/14 02:33:42;;;;;;;0.80;0.80;;;;;;;22.92;34.24;99007.47;5026295;28;20407;-89
2022/09/14 02:36:37;;;;;;;1.10;1.00;;;;;;;22.93;34.21;99006.38;5028049;28;20033;-90
2022/09/14 02:39:05;;;;;;;;;;;;;;;23.13;33.61;99005.16;5015554;28;20409;-91
2022/09/14 02:41:57;;;;;;;0.88;0.77;;;;;;;23.36;33.37;99001.41;5025521;28;19924;-90
2022/09/14 02:44:33;;;;;;;0.90;0.80;;;;;;;23.15;33.46;98998.31;5027841;28;20017;-90
2022/09/14 02:47:16;;;;;;;1.88;0.80;;;;;;;23.04;33.83;99005.03;5023396;28;20060;-90
2022/09/14 02:50:14;;;;;;;1.17;0.80;;;;;;;22.86;34.21;98993.94;5029022;28;20034;-89
2022/09/14 02:53:03;;;;;;;1.23;0.70;;;;;;;22.93;34.17;98990.03;5024069;28;20036;-89
2022/09/14 02:55:33;;;;;;;0.80;0.80;;;;;;;23.09;33.65;98991.34;5028376;28;20069;-89
2022/09/14 02:58:05;;;;;;;1.55;0.90;;;;;;;23.20;33.41;98991.94;5010928;28;20035;-90
2022/09/14 03:00:33;;;;;;;1.02;0.85;;;;;;;23.32;33.18;98989.50;5026966;28;20537;-89
2022/09/14 03:02:59;;;;;;;1.17;1.00;;;;;;;23.06;33.95;98981.88;5024794;28;20021;-88
2022/09/14 03:05:25;;;;;;;0.73;0.73;;;;;;;22.96;34.11;98976.59;5027535;28;20108;-89
2022/09/14 03:07:50;;;;;;;1.08;0.98;;;;;;;22.91;34.13;98979.44;5027494;28;20026;-90
2022/09/14 03:10:16;;;;;;;0.90;0.90;;;;;;;22.98;34.01;98979.81;5026775;28;20029;-91
2022/09/14 03:12:42;;;;;;;0.90;0.80;;;;;;;23.04;34.03;98978.63;5025329;28;20029;-90
2022/09/14 03:15:08;;;;;;;1.83;0.80;;;;;;;23.13;33.53;98970.56;5025486;28;20143;-90
2022/09/14 03:17:33;;;;;;;1.35;0.82;;;;;;;23.12;33.55;98963.50;5027105;28;20033;-90
2022/09/14 03:19:59;;;;;;;0.88;0.82;;;;;;;22.96;33.93;98960.25;5028346;28;20038;-90
2022/09/14 03:22:25;;;;;;;0.93;0.80;;;;;;;22.92;34.13;98959.28;5025804;28;20406;-90
2022/09/14 03:24:50;;;;;;;0.70;0.70;;;;;;;22.92;34.24;98958.44;5028141;28;20112;-90
2022/09/14 03:27:16;;;;;;;1.83;0.90;;;;;;;23.00;34.00;98955.00;5024725;28;20101;-89
2022/09/14 03:29:42;;;;;;;2.85;0.80;;;;;;;23.13;33.51;98961.56;5026719;28;20108;-89
2022/09/14 03:32:09;;;;;;;0.80;0.80;;;;;;;23.31;33.32;98957.91;5028076;28;20124;-90
2022/09/14 03:34:35;;;;;;;0.65;0.65;;;;;;;23.08;33.66;98961.66;5019481;28;20509;-90
2022/09/14 03:37:01;;;;;;;2.28;0.85;;;;;;;22.95;34.02;98953.19;5028614;28;20034;-91
2022/09/14 03:39:27;;;;;;;1.02;0.93;;;;;;;22.91;34.12;98954.13;5025210;28;20018;-90
2022/09/14 03:41:53;;;;;;;0.73;0.73;;;;;;;22.87;34.27;98956.66;5025174;28;20036;-90
2022/09/14 03:44:19;;;;;;;0.88;0.88;;;;;;;23.04;33.71;98948.66;5028691;28;20021;-89
2022/09/14 03:46:44;;;;;;;1.38;0.88;;;;;;;23.09;33.59;98946.94;5022166;28;20112;-89
2022/09/14 03:49:10;;;;;;;0.85;0.80;;;;;;;23.14;33.46;98952.28;5028565;28;20740;-89
2022/09/14 03:51:36;;;;;;;0.80;0.80;;;;;;;22.98;33.97;98949.84;5025605;28;20049;-88
2022/09/14 03:54:01;;;;;;;0.98;0.90;;;;;;;22.93;34.26;98944.53;5026061;28;20415;-88
2022/09/14 03:56:27;;;;;;;0.95;0.90;;;;;;;22.96;33.95;98941.19;5027754;28;20021;-87
2022/09/14 03:58:52;;;;;;;0.77;0.77;;;;;;;23.05;33.78;98944.81;5021791;28;20354;-88
2022/09/14 04:01:20;;;;;;;0.93;0.88;;;;;;;23.17;33.54;98932.59;5026670;28;20060;-88
2022/09/14 04:03:46;;;;;;;1.35;0.80;;;;;;;23.17;33.54;98932.59;5025936;28;20029;-89
2022/09/14 04:06:11;;;;;;;0.85;0.82;;;;;;;23.04;33.83;98935.03;5027281;28;20025;-88
2022/09/14 04:08:39;;;;;;;0.90;0.88;;;;;;;22.88;34.23;98934.53;5027236;28;20416;-89
2022/09/14 04:11:18;;;;;;;0.77;0.70;;;;;;;22.99;34.04;98937.88;5022970;28;20076;-89
2022/09/14 04:13:45;;;;;;;1.05;0.95;;;;;;;23.03;34.00;98932.59;5026093;28;20044;-89
2022/09/14 04:16:11;;;;;;;0.90;0.80;;;;;;;23.06;33.66;98930.09;5024344;28;20079;-89
2022/09/14 04:18:37;;;;;;;0.82;0.80;;;;;;;23.12;33.56;98927.25;5025896;28;20057;-89
2022/09/14 04:21:05;;;;;;;1.17;0.80;;;;;;;23.11;33.78;98928.38;5025612;28;20041;-89
2022/09/14 04:23:31;;;;;;;0.70;0.70;;;;;;;22.89;34.35;98921.72;5027395;28;20021;-89
2022/09/14 04:25:56;;;;;;;0.90;0.70;;;;;;;22.85;34.32;98918.00;5027519;28;20432;-89
2022/09/14 04:28:22;;;;;;;1.23;0.70;;;;;;;22.94;34.15;98918.06;5025948;28;20026;-89
2022/09/14 04:30:57;;;;;;;1.08;0.90;;;;;;;23.03;34.12;98914.34;5028107;28;20095;-88
2022/09/14 04:33:23;;;;;;;0.70;0.70;;;;;;;23.20;33.59;98918.38;5022300;28;20512;-88
2022/09/14 04:36:01;;;;;;;1.08;0.88;;;;;;;23.30;33.35;98915.41;5023651;28;20026;-88
2022/09/14 04:38:27;;;;;;;0.88;0.80;;;;;;;23.08;33.85;98904.44;5027872;28;20025;-89
2022/09/14 04:40:54;;;;;;;0.85;0.80;;;;;;;23.01;33.95;98902.16;5021210;28;20024;-88
2022/09/14 04:43:19;;;;;;;1.25;0.80;;;;;;;22.96;34.16;98899.53;5027419;28;20136;-89
2022/09/14 04:45:45;;;;;;;1.02;0.90;;;;;;;23.01;33.97;98902.16;5028498;28;20474;-88
2022/09/14 04:48:11;;;;;;;1.15;0.77;;;;;;;23.06;34.00;98900.13;5030542;28;20099;-89
2022/09/14 04:50:36;;;;;;;0.70;0.70;;;;;;;23.18;33.65;98901.50;5030880;28;20513;-89
2022/09/14 04:53:02;;;;;;;1.65;0.80;;;;;;;23.17;33.76;98894.44;5023550;28;20032;-89
2022/09/14 04:55:28;;;;;;;1.13;0.77;;;;;;;23.00;34.05;98890.41;5031207;28;20030;-89
2022/09/14 04:57:54;;;;;;;1.25;0.90;;;;;;;22.92;34.13;98884.88;5027708;28;20406;-84
2022/09/14 05:00:19;;;;;;;1.42;1.10;;;;;;;22.90;34.25;98890.66;5030247;28;20513;-84
2022/09/14 05:02:45;;;;;;;0.95;0.75;;;;;;;23.01;34.05;98883.88;5029495;28;20112;-84
2022/09/14 05:05:11;;;;;;;0.90;0.90;;;;;;;23.18;33.52;98885.16;5023232;28;20022;-83
2022/09/14 05:07:37;;;;;;;0.77;0.77;;;;;;;23.35;33.21;98868.13;5031005;28;20041;-83
2022/09/14 05:10:03;;;;;;;3.33;0.90;;;;;;;23.13;33.62;98883.38;5027872;28;20029;-84
2022/09/14 05:12:29;;;;;;;0.70;0.70;;;;;;;23.02;33.94;98877.28;5029213;28;20359;-84
2022/09/14 05:14:54;;;;;;;0.77;0.77;;;;;;;22.97;34.33;98874.69;5027681;28;20112;-84
2022/09/14 05:17:20;;;;;;;1.85;1.00;;;;;;;23.02;34.13;98874.56;5027548;28;20036;-85
2022/09/14 05:19:45;;;;;;;1.08;0.75;;;;;;;23.05;34.08;98876.72;5030385;28;20597;-85
2022/09/14 05:22:11;;;;;;;1.00;0.90;;;;;;;23.23;33.56;98871.41;5025825;28;20069;-85
2022/09/14 05:24:37;;;;;;;1.23;0.80;;;;;;;23.22;33.72;98864.34;5030369;28;20438;-85
2022/09/14 05:27:02;;;;;;;0.90;0.80;;;;;;;23.10;33.89;98867.63;5027660;28;20115;-85
2022/09/14 05:29:28;;;;;;;1.80;0.98;;;;;;;22.96;34.10;98869.56;5026718;28;20021;-85
2022/09/14 05:31:54;;;;;;;0.80;0.80;;;;;;;22.99;34.18;98867.03;5030461;28;20039;-85
2022/09/14 05:34:19;;;;;;;0.80;0.80;;;;;;;23.04;34.04;98871.53;5023776;28;20022;-85
2022/09/14 05:36:45;;;;;;;0.65;0.63;;;;;;;23.07;33.81;98862.78;5030075;28;20057;-90
2022/09/14 05:39:11;;;;;;;1.13;0.82;;;;;;;23.19;33.79;98870.41;5028741;28;20022;-88
2022/09/14 05:41:37;;;;;;;0.80;0.80;;;;;;;23.12;33.90;98864.59;5027025;28;20448;-87
2022/09/14 05:44:03;;;;;;;0.80;0.80;;;;;;;23.08;34.06;98858.13;5022993;28;20037;-87
2022/09/14 05:46:28;;;;;;;0.98;0.90;;;;;;;22.97;34.34;98852.09;5026037;28;20025;-87
2022/09/14 05:48:54;;;;;;;0.80;0.80;;;;;;;22.92;34.39;98844.88;5030272;28;20068;-88
2022/09/14 05:51:21;;;;;;;0.60;0.60;;;;;;;23.07;34.14;98846.44;5027271;28;20033;-87
2022/09/14 05:53:49;;;;;;;1.73;0.80;;;;;;;23.22;33.79;98839.84;5029519;28;20025;-88
2022/09/14 05:56:14;;;;;;;0.63;0.63;;;;;;;23.39;33.58;98831.78;5028744;28;20466;-92
2022/09/14 05:58:40;;;;;;;0.70;0.70;;;;;;;23.03;34.14;98835.31;5024037;28;20063;-89
2022/09/14 06:01:13;;;;;;;1.10;0.70;;;;;;;22.98;34.33;98843.63;5028653;28;20021;-90
2022/09/14 06:03:39;;;;;;;1.30;0.80;;;;;;;22.99;34.30;98837.06;5026772;28;20458;-88
2022/09/14 06:06:06;;;;;;;0.75;0.75;;;;;;;23.04;34.09;98836.94;5029496;28;20037;-89
2022/09/14 06:08:32;;;;;;;0.85;0.80;;;;;;;23.08;34.04;98833.63;5028518;28;20037;-88
2022/09/14 06:11:05;;;;;;;0.60;0.60;;;;;;;23.18;34.09;98831.47;5026061;28;20026;-89
2022/09/14 06:13:30;;;;;;;0.70;0.70;;;;;;;23.29;33.66;98829.31;5028033;28;20026;-87
2022/09/14 06:16:00;;;;;;;1.02;0.75;;;;;;;23.17;33.99;98827.13;5024743;28;20115;-89
2022/09/14 06:18:28;;;;;;;1.10;0.82;;;;;;;23.01;34.25;98826.66;5025522;28;20508;-88
2022/09/14 06:20:53;;;;;;;1.42;0.88;;;;;;;22.94;34.32;98815.38;5012081;28;20040;-88
2022/09/14 06:23:19;;;;;;;1.23;0.85;;;;;;;23.02;34.43;98816.56;5022194;28;20030;-89
2022/09/14 06:25:45;;;;;;;2.00;0.93;;;;;;;23.08;33.90;98814.53;5029906;28;20143;-88
2022/09/14 06:28:10;;;;;;;0.85;0.65;;;;;;;23.22;33.95;98815.31;5023363;28;20025;-90
2022/09/14 06:30:36;;;;;;;1.13;0.73;;;;;;;23.33;33.53;98811.19;5027642;28;20486;-87
2022/09/14 06:33:03;;;;;;;0.75;0.75;;;;;;;23.26;33.91;98805.38;5028663;28;20079;-88
2022/09/14 06:35:29;;;;;;;1.83;0.90;;;;;;;23.11;34.00;98809.31;5023686;28;20418;-88
2022/09/14 06:37:54;;;;;;;1.33;0.82;;;;;;;23.05;34.44;98805.06;5029126;28;20029;-88
2022/09/14 06:40:20;;;;;;;1.13;0.80;;;;;;;23.04;34.29;98809.69;5020569;28;20486;-88
2022/09/14 06:42:45;;;;;;;4.32;0.73;;;;;;;23.14;34.05;98802.41;5029314;28;20183;-87
2022/09/14 06:45:11;;;;;;;0.77;0.75;;;;;;;23.17;34.13;98804.53;5027120;28;20053;-90
2022/09/14 06:47:39;;;;;;;0.93;0.90;;;;;;;23.35;33.76;98809.00;5024536;28;20017;-90
2022/09/14 06:50:06;;;;;;;1.20;0.88;;;;;;;23.27;33.98;98812.47;5029029;28;20029;-90
2022/09/14 06:52:31;;;;;;;0.60;0.60;;;;;;;23.13;34.23;98798.06;5021114;28;20510;-84
2022/09/14 06:54:57;;;;;;;1.00;0.77;;;;;;;23.15;34.21;98799.38;5028781;28;20033;-83
2022/09/14 06:57:22;;;;;;;0.95;0.85;;;;;;;23.13;34.20;98800.78;5026394;28;20049;-83
2022/09/14 06:59:48;;;;;;;0.80;0.80;;;;;;;23.22;34.12;98788.06;5025605;28;20128;-84
2022/09/14 07:02:14;;;;;;;1.05;0.80;;;;;;;23.21;33.99;98792.69;5029307;28;20056;-84
2022/09/14 07:04:39;;;;;;;0.85;0.70;;;;;;;23.40;33.76;98794.41;5022845;28;20022;-84
2022/09/14 07:07:05;;;;;;;0.98;0.77;;;;;;;23.29;33.96;98791.13;5027943;28;20450;-84
2022/09/14 07:09:30;;;;;;;0.82;0.82;;;;;;;23.21;34.22;98792.69;5025284;28;20068;-84
2022/09/14 07:11:56;;;;;;;0.80;0.80;;;;;;;23.17;34.22;98790.91;5025317;28;20029;-85
2022/09/14 07:14:22;;;;;;;0.93;0.70;;;;;;;23.21;34.06;98798.13;5028850;28;20061;-84
2022/09/14 07:16:47;;;;;;;2.78;0.98;;;;;;;23.28;34.04;98786.00;5023914;28;20083;-84
2022/09/14 07:19:13;;;;;;;1.55;0.88;;;;;;;23.28;34.16;98788.72;5026606;28;20057;-89
2022/09/14 07:21:39;;;;;;;0.95;0.70;;;;;;;23.50;33.61;98774.25;5025931;28;20482;-86
2022/09/14 07:24:05;;;;;;;1.30;0.82;;;;;;;23.47;33.72;98786.59;5028031;28;20108;-88
2022/09/14 07:26:34;;;;;;;0.70;0.70;;;;;;;23.32;34.18;98776.06;5028999;28;20037;-89
2022/09/14 07:29:03;;;;;;;0.98;0.90;;;;;;;23.20;34.19;98780.19;5006983;28;20433;-90
2022/09/14 07:31:40;;;;;;;0.70;0.70;;;;;;;23.28;34.04;98781.34;5026806;28;20026;-87
2022/09/14 07:34:05;;;;;;;0.98;0.75;;;;;;;23.32;33.89;98782.34;5023542;28;20152;-88
2022/09/14 07:36:33;;;;;;;0.70;0.70;;;;;;;23.37;33.75;98771.31;5011105;28;20542;-88
2022/09/14 07:38:58;;;;;;;2.28;0.70;;;;;;;23.46;33.90;98774.09;5025070;28;20508;-88
2022/09/14 07:41:25;;;;;;;1.15;0.70;;;;;;;23.59;33.46;98773.19;5023119;28;20025;-86
2022/09/14 07:43:52;;;;;;;1.38;0.70;;;;;;;23.50;33.82;98777.00;5010897;28;21386;-86
2022/09/14 07:46:18;;;;;;;0.80;0.75;;;;;;;23.28;34.27;98775.09;5025182;28;20025;-88
2022/09/14 07:48:44;;;;;;;0.70;0.70;;;;;;;23.32;34.01;98766.00;5024076;28;20374;-86
2022/09/14 07:51:10;;;;;;;1.00;0.90;;;;;;;23.35;34.22;98762.66;5021306;28;20026;-87
2022/09/14 07:53:41;;;;;;;1.13;0.80;;;;;;;23.40;34.16;98767.97;5020147;28;20482;-87
2022/09/14 07:56:07;;;;;;;1.00;0.77;;;;;;;23.48;33.83;98771.06;5024544;28;20033;-86
2022/09/14 07:58:33;;;;;;;0.73;0.70;;;;;;;23.49;34.01;98772.66;5026758;28;20068;-87
2022/09/14 08:00:59;;;;;;;1.85;0.70;;;;;;;23.63;33.53;98757.81;5021066;28;20033;-87
2022/09/14 08:03:25;;;;;;;0.82;0.82;;;;;;;23.53;33.79;98749.91;5025753;28;20291;-90
2022/09/14 08:06:04;;;;;;;1.58;0.80;;;;;;;23.35;34.29;98757.19;5023445;28;20052;-88
2022/09/14 08:08:37;;;;;;;0.68;0.68;;;;;;;23.35;34.15;98759.09;5028452;28;20429;-89
2022/09/14 08:11:06;;;;;;;1.60;0.90;;;;;;;23.40;34.19;98757.06;5026391;28;20378;-87
2022/09/14 08:13:33;;;;;;;1.83;1.10;;;;;;;23.44;33.92;98757.25;5027795;28;20026;-87
2022/09/14 08:15:59;;;;;;;0.70;0.70;;;;;;;23.48;33.84;98751.97;5026138;28;20024;-87
2022/09/14 08:18:26;;;;;;;0.60;0.60;;;;;;;23.71;33.64;98761.69;5026440;28;20025;-88
2022/09/14 08:20:52;;;;;;;1.17;0.73;;;;;;;23.66;33.67;98750.91;5014399;28;20490;-89
2022/09/14 08:23:17;;;;;;;1.63;0.63;;;;;;;23.51;33.93;98740.41;5023857;28;20037;-89
2022/09/14 08:25:43;;;;;;;0.63;0.60;;;;;;;23.43;34.21;98740.06;5031720;28;20021;-90
2022/09/14 08:28:09;;;;;;;1.38;0.88;;;;;;;23.42;34.12;98738.47;5027725;28;20096;-88
2022/09/14 08:30:34;;;;;;;0.82;0.80;;;;;;;23.51;33.94;98729.50;5028977;28;20033;-89
2022/09/14 08:33:00;;;;;;;1.17;1.08;;;;;;;23.59;33.71;98736.94;5030637;28;20064;-88
2022/09/14 08:35:25;;;;;;;0.77;0.77;;;;;;;23.68;33.72;98726.88;5025578;28;20038;-85
2022/09/14 08:37:52;;;;;;;0.73;0.73;;;;;;;23.80;33.39;98729.81;5030299;28;20074;-85
2022/09/14 08:40:18;;;;;;;0.77;0.77;;;;;;;23.83;33.51;98730.31;5024517;28;20028;-87
2022/09/14 08:42:43;;;;;;;1.48;0.93;;;;;;;23.60;33.81;98733.88;5028800;28;20025;-89
2022/09/14 08:45:10;;;;;;;1.00;0.80;;;;;;;23.54;33.99;98732.44;5011336;28;20028;-87
2022/09/14 08:47:37;;;;;;;1.85;0.90;;;;;;;23.56;33.91;98715.75;5023019;28;20025;-90
2022/09/14 08:50:09;;;;;;;0.70;0.70;;;;;;;23.59;34.22;98734.19;5028896;28;20060;-87
2022/09/14 08:52:43;;;;;;;2.90;0.90;;;;;;;23.66;34.05;98725.56;5024254;28;20031;-88
2022/09/14 08:55:17;;;;;;;0.82;0.75;;;;;;;23.72;33.69;98719.66;5027874;28;20079;-88
2022/09/14 08:57:48;;;;;;;0.88;0.70;;;;;;;23.83;33.51;98711.22;5025762;28;20529;-87
2022/09/14 09:00:16;;;;;;;0.82;0.80;;;;;;;23.95;33.45;98711.41;5026199;28;20021;-90
2022/09/14 09:03:04;;;;;;;0.73;0.73;;;;;;;23.78;33.73;98712.97;5029554;28;20036;-91
2022/09/14 09:05:39;;;;;;;1.83;0.82;;;;;;;23.60;33.89;98716.72;5028223;28;20057;-88
2022/09/14 09:08:26;;;;;;;1.33;0.80;;;;;;;23.58;34.12;98716.25;5029663;28;20029;-86
2022/09/14 09:10:52;;;;;;;1.95;0.65;;;;;;;23.62;34.00;98704.38;5025470;28;20028;-87
2022/09/14 09:13:20;;;;;;;1.83;0.80;;;;;;;23.77;33.70;98716.00;4996538;28;20482;-90
2022/09/14 09:15:48;;;;;;;3.78;1.10;;;;;;;23.74;33.75;98716.63;5024685;28;20056;-87
2022/09/14 09:18:38;;;;;;;0.70;0.70;;;;;;;23.99;33.54;98706.91;5028196;28;20067;-85
2022/09/14 09:21:21;;;;;;;0.80;0.80;;;;;;;24.03;33.25;98702.44;5029306;28;20034;-84
2022/09/14 09:23:47;;;;;;;1.15;0.80;;;;;;;24.09;33.40;98705.81;5027535;28;20030;-85
2022/09/14 09:26:24;;;;;;;0.70;0.70;;;;;;;23.89;33.83;98704.50;5029432;28;20063;-87
2022/09/14 09:28:56;;;;;;;1.00;0.88;;;;;;;23.70;33.97;98716.44;5026080;28;20025;-90
2022/09/14 09:31:34;;;;;;;1.10;0.75;;;;;;;23.72;34.12;98711.47;5027740;28;20025;-89
2022/09/14 09:34:00;;;;;;;1.92;0.80;;;;;;;23.70;34.24;98689.19;5027959;28;20033;-86
2022/09/14 09:36:26;;;;;;;1.38;0.80;;;;;;;23.87;33.73;98696.66;5028055;28;20021;-85
2022/09/14 09:38:51;;;;;;;1.00;0.80;;;;;;;23.95;33.61;98689.59;5012721;28;20108;-87
2022/09/14 09:41:17;;;;;;;1.27;0.82;;;;;;;24.03;33.60;98698.94;5024220;28;20473;-85
2022/09/14 09:44:09;;;;;;;1.38;0.98;;;;;;;24.26;33.28;98683.22;5030111;28;20033;-85
2022/09/14 09:46:39;;;;;;;1.92;1.10;;;;;;;24.22;32.95;98691.25;5022282;28;20631;-87
2022/09/14 09:49:32;;;;;;;1.02;0.80;;;;;;;24.16;33.26;98685.13;5028413;28;20494;-88
2022/09/14 09:52:06;;;;;;;1.27;0.80;;;;;;;23.91;33.81;98685.91;5025609;28;20067;-86
2022/09/14 09:54:32;;;;;;;1.13;0.88;;;;;;;23.86;34.10;98691.50;5026987;28;20704;-90
2022/09/14 09:56:59;;;;;;;1.88;0.80;;;;;;;23.84;34.21;98677.38;5029021;28;20117;-89
2022/09/14 09:59:36;;;;;;;0.80;0.75;;;;;;;23.81;34.27;98685.06;5024768;28;20029;-86
2022/09/14 10:02:24;;;;;;;1.52;0.95;;;;;;;24.04;33.70;98687.66;5028143;28;20076;-87
2022/09/14 10:04:57;;;;;;;2.03;0.80;;;;;;;24.06;33.69;98690.91;5020791;28;20034;-88
2022/09/14 10:07:23;;;;;;;1.00;0.90;;;;;;;24.13;33.55;98685.78;5029738;28;20040;-88
2022/09/14 10:10:11;;;;;;;0.70;0.70;;;;;;;24.30;33.41;98685.00;5025083;28;20363;-89
2022/09/14 10:12:38;;;;;;;0.93;0.88;;;;;;;24.35;33.25;98686.75;5027652;28;20069;-87
2022/09/14 10:15:24;;;;;;;0.70;0.70;;;;;;;24.32;33.22;98695.59;5029717;28;20383;-89
2022/09/14 10:17:58;;;;;;;1.30;1.00;;;;;;;24.06;33.55;98692.81;5023612;28;20026;-87
2022/09/14 10:20:24;;;;;;;3.05;1.00;;;;;;;23.98;33.77;98691.69;5029345;28;20040;-87
2022/09/14 10:22:50;;;;;;;1.23;1.00;;;;;;;23.90;34.02;98687.00;5005097;28;20037;-86
2022/09/14 10:25:16;;;;;;;2.28;0.85;;;;;;;24.04;33.76;98682.22;5011849;28;20032;-92
2022/09/14 10:27:47;;;;;;;0.70;0.70;;;;;;;24.03;34.03;98688.81;5026544;28;20025;-89
2022/09/14 10:30:18;;;;;;;1.05;0.90;;;;;;;24.25;33.59;98676.13;5025566;28;20064;-88
2022/09/14 10:32:59;;;;;;;1.10;1.00;;;;;;;24.34;33.36;98685.16;5028341;28;20038;-88
2022/09/14 10:35:46;;;;;;;1.55;0.98;;;;;;;24.38;33.17;98686.09;5024099;28;20030;-89
2022/09/14 10:38:33;;;;;;;1.00;0.90;;;;;;;24.40;33.25;98677.59;5028257;28;20035;-90
2022/09/14 10:41:11;;;;;;;3.03;0.80;;;;;;;24.41;33.32;98680.00;5024030;28;20389;-88
2022/09/14 10:43:55;;;;;;;1.95;1.00;;;;;;;24.41;33.02;98680.00;5028195;28;20074;-84
2022/09/14 10:46:23;;;;;;;;;;;;;;;24.22;33.89;98668.63;5027037;28;20021;-85
2022/09/14 10:49:06;;;;;;;1.00;0.90;;;;;;;24.07;33.68;98684.31;5025269;28;19932;-88
2022/09/14 10:51:44;;;;;;;2.38;1.00;;;;;;;24.05;34.17;98675.66;5008019;28;20029;-87
2022/09/14 10:54:39;;;;;;;1.10;1.00;;;;;;;24.06;33.88;98670.97;5024491;28;20026;-88
2022/09/14 10:57:09;;;;;;;1.88;1.00;;;;;;;24.19;33.70;98681.75;5028930;28;20087;-91
2022/09/14 11:00:14;;;;;;;1.42;1.00;;;;;;;24.43;33.41;98672.28;5022695;28;20072;-86
2022/09/14 11:02:51;;;;;;;0.90;0.80;;;;;;;24.44;33.08;98676.66;5016976;28;20037;-87
2022/09/14 11:05:20;;;;;;;1.48;1.00;;;;;;;24.44;33.19;98671.19;5021409;28;20398;-88
2022/09/14 11:08:23;;;;;;;1.02;0.80;;;;;;;24.48;33.31;98672.13;5028426;28;20100;-87
2022/09/14 11:11:05;;;;;;;2.25;1.10;;;;;;;24.48;33.23;98680.31;5025883;28;20057;-88
2022/09/14 11:14:10;;;;;;;1.60;0.90;;;;;;;24.19;33.75;98684.47;5026300;28;20485;-87
2022/09/14 11:16:56;;;;;;;1.05;0.80;;;;;;;24.15;34.06;98682.72;5021989;28;20065;-87
2022/09/14 11:19:34;;;;;;;0.77;0.77;;;;;;;24.11;34.15;98679.84;5025283;28;20482;-88
2022/09/14 11:22:21;;;;;;;2.05;1.02;;;;;;;24.11;34.20;98677.09;5024083;28;20049;-91
2022/09/14 11:25:39;;;;;;;2.28;0.88;;;;;;;24.19;33.86;98684.47;5026403;28;20034;-92
2022/09/14 11:28:09;;;;;;;0.77;0.77;;;;;;;24.42;33.18;98681.59;5021266;28;20040;-93
2022/09/14 11:30:40;;;;;;;1.17;1.00;;;;;;;24.45;33.64;98680.16;5025017;28;20128;-92
2022/09/14 11:33:25;;;;;;;1.30;0.98;;;;;;;24.55;33.34;98690.78;5025245;28;20030;-92
2022/09/14 11:35:54;;;;;;;1.27;0.90;;;;;;;24.52;33.35;98681.28;5008798;28;20489;-93
2022/09/14 11:38:21;;;;;;;0.90;0.90;;;;;;;24.54;33.42;98680.97;5010979;28;20030;-91
2022/09/14 11:41:17;;;;;;;0.93;0.88;;;;;;;24.58;33.24;98673.78;5007560;28;20036;-90
2022/09/14 11:43:49;;;;;;;1.48;0.85;;;;;;;24.44;33.35;98679.38;5027372;28;20032;-91
2022/09/14 11:46:18;;;;;;;1.10;0.88;;;;;;;24.27;33.69;98680.16;5010777;28;20104;-90
2022/09/14 11:49:33;;;;;;;1.80;1.10;;;;;;;24.10;34.42;98678.22;5023847;28;20030;-89
2022/09/14 11:52:24;;;;;;;1.48;1.00;;;;;;;24.10;34.31;98680.94;5020945;28;20088;-89